Current Weather

Central Park

Central Park, New York (KNYC)

Report from: Tuesday, July 16, 2024 3:51 AM EDT
Current time: Tuesday, July 16, 2024 4:28 AM EDT

Nearby weather – Weather history – Daily summaries
Weather forecast

Temperature27.8°C (82.0°F)
Heat index30.1°C (86.2°F)
Dew point21.1°C (70.0°F)
Winds Calm
Visibility10 mi. (16.1 km)
Clouds Sky clear
Altimeter29.81 in.Hg (1009 mB)
Relative humidity67 %
Density altitude1,971 ft. (601 m)
Sea-level pressure100.9 kPa (1009 mB, 29.78 in.Hg)
Remarks Fully automated report
Automated weather observing station with precipitation discriminator
Flight conditions Visual Meteorological Conditions
Raw dataKNYC 160751Z AUTO 00000KT 10SM CLR 28/21 A2981 RMK AO2 SLP085 T02780211
An error has occurred. This application may no longer respond until reloaded. Reload 🗙